Etusivu
METAR-TAF:

METAR-TAF

Lentoasemat :

Stuttgart Municipal Airport

Stuttgart, Arkansas, Yhdysvallat

Leveyspiiri: 34-36N, Pituuspiiri: 091-34W, korkeus merenpinnasta: 68 m

Tämänhetkinen sää

Tämä raportti tehtiin 1 tunti ja 1 minuuttia sitten, kello 10.56 UTC
Tuuli 13 kn etelästä/kaakosta
Lämpötila 11°C
Kosteus 94%
Ilmanpaine 1009 hPa
Näkyvyys: 16.1 km
Hajonneita pilviä 1300 ft:n korkeudessa
Pilvistä 2200 ft:n korkeudessa

METAR: KSGT 241056Z AUTO 16013KT 10SM BKN013 OVC022 11/10 A2979 RMK AO2 RAB09E31 SLP089 P0000 T01060100

Aika: 05:57 (11:57 UTC)


TAF: puuttuu

Säähavainnot ja -ennusteet yli 4000 lentoasemalta (METAR- ja TAF-raportit).

Käytössä olevat sääasemat on merkitty karttaan keltaisilla ja punaisilla pisteillä.

Aseta hiiri pisteen päälle nähdäksesi sääaseman nimen.

Klikkaa sitten nähdäksesi säähavainnot ja -ennusteet.

Kartan vaihtaminen: klikkaa mustalla rastilla varustettuja vihreitä pisteitä, niin voit zoomata sisään; viivalla varustettua vihreää pistettä, niin voit zoomata ulos tai vihreitä nuolia, niin pääset viereisille kartoille.


METAR-TAF: